sensor_id;sensor_type;location;lat;lon;timestamp;P1;durP1;ratioP1;P2;durP2;ratioP2
15258;SDS011;34462;51.368;12.364;2023-03-01T00:01:44;14.27;;;10.30;;
15258;SDS011;34462;51.368;12.364;2023-03-01T00:04:13;14.03;;;10.53;;
15258;SDS011;34462;51.368;12.364;2023-03-01T00:06:43;13.37;;;10.40;;
15258;SDS011;34462;51.368;12.364;2023-03-01T00:09:12;14.37;;;9.73;;
15258;SDS011;34462;51.368;12.364;2023-03-01T00:11:40;12.70;;;9.97;;
15258;SDS011;34462;51.368;12.364;2023-03-01T00:14:09;13.93;;;9.40;;
15258;SDS011;34462;51.368;12.364;2023-03-01T00:16:38;12.43;;;9.10;;
15258;SDS011;34462;51.368;12.364;2023-03-01T00:19:09;13.23;;;10.13;;
15258;SDS011;34462;51.368;12.364;2023-03-01T00:21:40;12.30;;;9.20;;
15258;SDS011;34462;51.368;12.364;2023-03-01T00:24:10;13.27;;;8.87;;
15258;SDS011;34462;51.368;12.364;2023-03-01T00:26:39;11.13;;;8.53;;
15258;SDS011;34462;51.368;12.364;2023-03-01T00:29:07;12.37;;;9.27;;
15258;SDS011;34462;51.368;12.364;2023-03-01T00:31:35;11.67;;;8.60;;
15258;SDS011;34462;51.368;12.364;2023-03-01T00:34:04;15.47;;;10.17;;
15258;SDS011;34462;51.368;12.364;2023-03-01T00:36:34;11.17;;;8.40;;
15258;SDS011;34462;51.368;12.364;2023-03-01T00:39:07;11.33;;;8.33;;
15258;SDS011;34462;51.368;12.364;2023-03-01T00:41:38;12.90;;;9.27;;
15258;SDS011;34462;51.368;12.364;2023-03-01T00:44:07;15.30;;;8.43;;
15258;SDS011;34462;51.368;12.364;2023-03-01T00:46:35;10.57;;;8.07;;
15258;SDS011;34462;51.368;12.364;2023-03-01T00:49:03;14.87;;;9.20;;
15258;SDS011;34462;51.368;12.364;2023-03-01T00:51:32;12.57;;;8.80;;
15258;SDS011;34462;51.368;12.364;2023-03-01T00:54:01;11.53;;;7.97;;
15258;SDS011;34462;51.368;12.364;2023-03-01T00:56:31;10.93;;;8.43;;
15258;SDS011;34462;51.368;12.364;2023-03-01T00:59:00;10.77;;;8.20;;
15258;SDS011;34462;51.368;12.364;2023-03-01T01:01:29;14.07;;;8.73;;
15258;SDS011;34462;51.368;12.364;2023-03-01T01:03:59;12.13;;;8.20;;
15258;SDS011;34462;51.368;12.364;2023-03-01T01:06:31;11.93;;;8.23;;
15258;SDS011;34462;51.368;12.364;2023-03-01T01:09:02;15.50;;;8.37;;
15258;SDS011;34462;51.368;12.364;2023-03-01T01:11:34;10.43;;;8.23;;
15258;SDS011;34462;51.368;12.364;2023-03-01T01:14:03;11.47;;;8.27;;
15258;SDS011;34462;51.368;12.364;2023-03-01T01:16:32;13.90;;;8.70;;
15258;SDS011;34462;51.368;12.364;2023-03-01T01:19:00;13.17;;;8.23;;
15258;SDS011;34462;51.368;12.364;2023-03-01T01:21:28;12.60;;;8.73;;
15258;SDS011;34462;51.368;12.364;2023-03-01T01:23:57;12.93;;;8.37;;
15258;SDS011;34462;51.368;12.364;2023-03-01T01:26:27;11.03;;;8.30;;
15258;SDS011;34462;51.368;12.364;2023-03-01T01:28:59;10.67;;;8.10;;
15258;SDS011;34462;51.368;12.364;2023-03-01T01:31:30;12.40;;;8.67;;
15258;SDS011;34462;51.368;12.364;2023-03-01T01:34:00;11.83;;;8.37;;
15258;SDS011;34462;51.368;12.364;2023-03-01T01:36:31;10.93;;;8.20;;
15258;SDS011;34462;51.368;12.364;2023-03-01T01:39:00;10.97;;;8.03;;
15258;SDS011;34462;51.368;12.364;2023-03-01T01:41:29;10.53;;;7.77;;
15258;SDS011;34462;51.368;12.364;2023-03-01T01:44:16;12.53;;;8.53;;
15258;SDS011;34462;51.368;12.364;2023-03-01T01:46:49;13.53;;;9.20;;
15258;SDS011;34462;51.368;12.364;2023-03-01T01:49:25;12.57;;;8.57;;
15258;SDS011;34462;51.368;12.364;2023-03-01T01:52:03;11.23;;;8.53;;
15258;SDS011;34462;51.368;12.364;2023-03-01T01:54:40;12.27;;;8.50;;
15258;SDS011;34462;51.368;12.364;2023-03-01T01:57:16;13.07;;;8.90;;
15258;SDS011;34462;51.368;12.364;2023-03-01T01:59:52;11.03;;;8.50;;
15258;SDS011;34462;51.368;12.364;2023-03-01T02:02:25;12.50;;;9.13;;
15258;SDS011;34462;51.368;12.364;2023-03-01T02:04:56;11.67;;;8.53;;
15258;SDS011;34462;51.368;12.364;2023-03-01T02:07:36;13.43;;;9.77;;
15258;SDS011;34462;51.368;12.364;2023-03-01T02:10:07;10.20;;;7.77;;
15258;SDS011;34462;51.368;12.364;2023-03-01T02:12:36;15.03;;;9.13;;
15258;SDS011;34462;51.368;12.364;2023-03-01T02:15:09;11.57;;;8.20;;
15258;SDS011;34462;51.368;12.364;2023-03-01T02:17:37;11.20;;;8.30;;
15258;SDS011;34462;51.368;12.364;2023-03-01T02:20:09;11.57;;;8.63;;
15258;SDS011;34462;51.368;12.364;2023-03-01T02:22:48;10.37;;;7.97;;
15258;SDS011;34462;51.368;12.364;2023-03-01T02:25:24;12.77;;;9.07;;
15258;SDS011;34462;51.368;12.364;2023-03-01T02:28:02;13.23;;;9.10;;
15258;SDS011;34462;51.368;12.364;2023-03-01T02:30:39;12.80;;;9.03;;
15258;SDS011;34462;51.368;12.364;2023-03-01T02:33:29;12.40;;;9.17;;
15258;SDS011;34462;51.368;12.364;2023-03-01T02:36:02;12.37;;;8.17;;
15258;SDS011;34462;51.368;12.364;2023-03-01T02:38:35;10.60;;;8.60;;
15258;SDS011;34462;51.368;12.364;2023-03-01T02:41:03;11.90;;;8.27;;
15258;SDS011;34462;51.368;12.364;2023-03-01T02:43:34;12.63;;;8.70;;
15258;SDS011;34462;51.368;12.364;2023-03-01T02:46:05;11.87;;;8.53;;
15258;SDS011;34462;51.368;12.364;2023-03-01T02:48:40;14.17;;;9.30;;
15258;SDS011;34462;51.368;12.364;2023-03-01T02:51:14;11.73;;;8.20;;
15258;SDS011;34462;51.368;12.364;2023-03-01T02:54:08;11.13;;;8.70;;
15258;SDS011;34462;51.368;12.364;2023-03-01T02:56:49;11.83;;;9.00;;
15258;SDS011;34462;51.368;12.364;2023-03-01T02:59:19;14.20;;;10.20;;
15258;SDS011;34462;51.368;12.364;2023-03-01T03:01:53;12.83;;;8.87;;
15258;SDS011;34462;51.368;12.364;2023-03-01T03:04:21;11.20;;;8.97;;
15258;SDS011;34462;51.368;12.364;2023-03-01T03:06:50;14.57;;;9.33;;
15258;SDS011;34462;51.368;12.364;2023-03-01T03:09:18;11.37;;;8.70;;
15258;SDS011;34462;51.368;12.364;2023-03-01T03:11:47;16.10;;;9.97;;
15258;SDS011;34462;51.368;12.364;2023-03-01T03:14:16;13.97;;;10.30;;
15258;SDS011;34462;51.368;12.364;2023-03-01T03:16:45;14.63;;;9.83;;
15258;SDS011;34462;51.368;12.364;2023-03-01T03:19:17;14.30;;;9.70;;
15258;SDS011;34462;51.368;12.364;2023-03-01T03:21:47;13.70;;;9.17;;
15258;SDS011;34462;51.368;12.364;2023-03-01T03:24:15;12.93;;;9.33;;
15258;SDS011;34462;51.368;12.364;2023-03-01T03:26:44;14.73;;;10.20;;
15258;SDS011;34462;51.368;12.364;2023-03-01T03:29:12;13.17;;;9.57;;
15258;SDS011;34462;51.368;12.364;2023-03-01T03:31:40;14.00;;;10.00;;
15258;SDS011;34462;51.368;12.364;2023-03-01T03:34:09;18.77;;;10.63;;
15258;SDS011;34462;51.368;12.364;2023-03-01T03:36:45;15.57;;;10.57;;
15258;SDS011;34462;51.368;12.364;2023-03-01T03:39:13;16.10;;;10.90;;
15258;SDS011;34462;51.368;12.364;2023-03-01T03:41:41;12.97;;;9.20;;
15258;SDS011;34462;51.368;12.364;2023-03-01T03:44:09;14.60;;;9.67;;
15258;SDS011;34462;51.368;12.364;2023-03-01T03:46:38;13.70;;;9.90;;
15258;SDS011;34462;51.368;12.364;2023-03-01T03:49:06;12.80;;;9.13;;
15258;SDS011;34462;51.368;12.364;2023-03-01T03:51:34;13.40;;;9.47;;
15258;SDS011;34462;51.368;12.364;2023-03-01T03:54:04;12.73;;;8.97;;
15258;SDS011;34462;51.368;12.364;2023-03-01T03:56:32;11.73;;;9.70;;
15258;SDS011;34462;51.368;12.364;2023-03-01T03:59:01;14.57;;;10.33;;
15258;SDS011;34462;51.368;12.364;2023-03-01T04:01:29;14.30;;;9.93;;
15258;SDS011;34462;51.368;12.364;2023-03-01T04:03:57;13.73;;;9.67;;
15258;SDS011;34462;51.368;12.364;2023-03-01T04:06:30;13.30;;;9.53;;
15258;SDS011;34462;51.368;12.364;2023-03-01T04:08:58;15.60;;;9.83;;
15258;SDS011;34462;51.368;12.364;2023-03-01T04:11:30;14.83;;;9.90;;
15258;SDS011;34462;51.368;12.364;2023-03-01T04:14:00;16.47;;;10.17;;
15258;SDS011;34462;51.368;12.364;2023-03-01T04:16:30;15.33;;;9.77;;
15258;SDS011;34462;51.368;12.364;2023-03-01T04:18:59;15.40;;;10.10;;
15258;SDS011;34462;51.368;12.364;2023-03-01T04:21:27;14.27;;;10.10;;
15258;SDS011;34462;51.368;12.364;2023-03-01T04:23:55;16.90;;;10.10;;
15258;SDS011;34462;51.368;12.364;2023-03-01T04:26:23;12.83;;;9.43;;
15258;SDS011;34462;51.368;12.364;2023-03-01T04:28:54;14.23;;;10.07;;
15258;SDS011;34462;51.368;12.364;2023-03-01T04:31:22;14.03;;;9.93;;
15258;SDS011;34462;51.368;12.364;2023-03-01T04:33:51;13.80;;;9.73;;
15258;SDS011;34462;51.368;12.364;2023-03-01T04:36:21;13.70;;;9.93;;
15258;SDS011;34462;51.368;12.364;2023-03-01T04:38:53;14.87;;;10.23;;
15258;SDS011;34462;51.368;12.364;2023-03-01T04:41:23;14.70;;;10.30;;
15258;SDS011;34462;51.368;12.364;2023-03-01T04:43:53;16.37;;;10.70;;
15258;SDS011;34462;51.368;12.364;2023-03-01T04:46:22;16.10;;;10.23;;
15258;SDS011;34462;51.368;12.364;2023-03-01T04:48:51;15.30;;;10.00;;
15258;SDS011;34462;51.368;12.364;2023-03-01T04:51:19;13.17;;;9.30;;
15258;SDS011;34462;51.368;12.364;2023-03-01T04:53:47;14.37;;;9.43;;
15258;SDS011;34462;51.368;12.364;2023-03-01T04:56:16;14.80;;;9.43;;
15258;SDS011;34462;51.368;12.364;2023-03-01T04:58:45;14.40;;;9.87;;
15258;SDS011;34462;51.368;12.364;2023-03-01T05:01:16;16.07;;;10.90;;
15258;SDS011;34462;51.368;12.364;2023-03-01T05:03:47;15.37;;;9.67;;
15258;SDS011;34462;51.368;12.364;2023-03-01T05:06:18;14.13;;;9.17;;
15258;SDS011;34462;51.368;12.364;2023-03-01T05:08:48;14.17;;;10.23;;
15258;SDS011;34462;51.368;12.364;2023-03-01T05:11:16;13.73;;;10.07;;
15258;SDS011;34462;51.368;12.364;2023-03-01T05:13:45;14.50;;;9.70;;
15258;SDS011;34462;51.368;12.364;2023-03-01T05:16:13;13.10;;;9.73;;
15258;SDS011;34462;51.368;12.364;2023-03-01T05:18:44;12.90;;;9.40;;
15258;SDS011;34462;51.368;12.364;2023-03-01T05:21:13;14.30;;;9.73;;
15258;SDS011;34462;51.368;12.364;2023-03-01T05:23:43;13.10;;;8.87;;
15258;SDS011;34462;51.368;12.364;2023-03-01T05:26:13;14.60;;;9.33;;
15258;SDS011;34462;51.368;12.364;2023-03-01T05:28:58;13.10;;;9.80;;
15258;SDS011;34462;51.368;12.364;2023-03-01T05:31:27;15.50;;;10.27;;
15258;SDS011;34462;51.368;12.364;2023-03-01T05:33:58;13.63;;;9.67;;
15258;SDS011;34462;51.368;12.364;2023-03-01T05:36:27;14.83;;;10.13;;
15258;SDS011;34462;51.368;12.364;2023-03-01T05:38:56;14.57;;;10.03;;
15258;SDS011;34462;51.368;12.364;2023-03-01T05:41:24;15.00;;;10.60;;
15258;SDS011;34462;51.368;12.364;2023-03-01T05:43:52;16.00;;;11.07;;
15258;SDS011;34462;51.368;12.364;2023-03-01T05:46:21;18.13;;;11.63;;
15258;SDS011;34462;51.368;12.364;2023-03-01T05:48:50;14.93;;;10.63;;
15258;SDS011;34462;51.368;12.364;2023-03-01T05:51:20;15.53;;;10.97;;
15258;SDS011;34462;51.368;12.364;2023-03-01T05:53:48;18.23;;;11.17;;
15258;SDS011;34462;51.368;12.364;2023-03-01T05:56:16;16.03;;;10.67;;
15258;SDS011;34462;51.368;12.364;2023-03-01T05:58:45;16.63;;;11.47;;
15258;SDS011;34462;51.368;12.364;2023-03-01T06:01:15;16.00;;;11.83;;
15258;SDS011;34462;51.368;12.364;2023-03-01T06:03:43;16.73;;;11.97;;
15258;SDS011;34462;51.368;12.364;2023-03-01T06:06:11;16.80;;;11.87;;
15258;SDS011;34462;51.368;12.364;2023-03-01T06:08:41;17.33;;;12.23;;
15258;SDS011;34462;51.368;12.364;2023-03-01T06:11:09;18.20;;;12.93;;
15258;SDS011;34462;51.368;12.364;2023-03-01T06:13:38;16.80;;;12.33;;
15258;SDS011;34462;51.368;12.364;2023-03-01T06:16:06;18.00;;;12.53;;
15258;SDS011;34462;51.368;12.364;2023-03-01T06:18:35;17.87;;;12.17;;
15258;SDS011;34462;51.368;12.364;2023-03-01T06:21:05;17.13;;;12.73;;
15258;SDS011;34462;51.368;12.364;2023-03-01T06:23:35;18.97;;;12.23;;
15258;SDS011;34462;51.368;12.364;2023-03-01T06:26:06;16.70;;;11.73;;
15258;SDS011;34462;51.368;12.364;2023-03-01T06:28:36;15.47;;;11.07;;
15258;SDS011;34462;51.368;12.364;2023-03-01T06:31:04;17.03;;;12.47;;
15258;SDS011;34462;51.368;12.364;2023-03-01T06:33:34;17.50;;;12.93;;
15258;SDS011;34462;51.368;12.364;2023-03-01T06:36:03;18.80;;;12.30;;
15258;SDS011;34462;51.368;12.364;2023-03-01T06:38:32;19.73;;;12.70;;
15258;SDS011;34462;51.368;12.364;2023-03-01T06:41:00;18.03;;;12.57;;
15258;SDS011;34462;51.368;12.364;2023-03-01T06:43:30;18.70;;;12.37;;
15258;SDS011;34462;51.368;12.364;2023-03-01T06:45:58;23.23;;;12.73;;
15258;SDS011;34462;51.368;12.364;2023-03-01T06:48:27;18.10;;;11.50;;
15258;SDS011;34462;51.368;12.364;2023-03-01T06:50:57;22.97;;;13.23;;
15258;SDS011;34462;51.368;12.364;2023-03-01T06:53:25;17.43;;;11.77;;
15258;SDS011;34462;51.368;12.364;2023-03-01T06:55:54;19.90;;;11.93;;
15258;SDS011;34462;51.368;12.364;2023-03-01T06:58:23;15.67;;;11.73;;
15258;SDS011;34462;51.368;12.364;2023-03-01T07:00:52;17.30;;;11.90;;
15258;SDS011;34462;51.368;12.364;2023-03-01T07:03:20;20.83;;;11.57;;
15258;SDS011;34462;51.368;12.364;2023-03-01T07:05:49;19.67;;;11.30;;
15258;SDS011;34462;51.368;12.364;2023-03-01T07:08:18;16.70;;;10.70;;
15258;SDS011;34462;51.368;12.364;2023-03-01T07:10:46;17.63;;;11.70;;
15258;SDS011;34462;51.368;12.364;2023-03-01T07:13:17;19.27;;;12.63;;
15258;SDS011;34462;51.368;12.364;2023-03-01T07:15:45;16.67;;;11.50;;
15258;SDS011;34462;51.368;12.364;2023-03-01T07:18:15;16.87;;;11.43;;
15258;SDS011;34462;51.368;12.364;2023-03-01T07:20:43;17.03;;;10.90;;
15258;SDS011;34462;51.368;12.364;2023-03-01T07:23:11;18.47;;;11.30;;
15258;SDS011;34462;51.368;12.364;2023-03-01T07:25:39;17.43;;;11.30;;
15258;SDS011;34462;51.368;12.364;2023-03-01T07:28:08;19.33;;;13.07;;
15258;SDS011;34462;51.368;12.364;2023-03-01T07:30:36;18.47;;;12.10;;
15258;SDS011;34462;51.368;12.364;2023-03-01T07:33:04;16.87;;;11.57;;
15258;SDS011;34462;51.368;12.364;2023-03-01T07:35:35;15.97;;;11.07;;
15258;SDS011;34462;51.368;12.364;2023-03-01T07:38:03;19.20;;;11.40;;
15258;SDS011;34462;51.368;12.364;2023-03-01T07:40:31;15.87;;;11.87;;
15258;SDS011;34462;51.368;12.364;2023-03-01T07:43:00;19.70;;;11.53;;
15258;SDS011;34462;51.368;12.364;2023-03-01T07:45:28;16.33;;;10.87;;
15258;SDS011;34462;51.368;12.364;2023-03-01T07:47:57;17.77;;;11.63;;
15258;SDS011;34462;51.368;12.364;2023-03-01T07:50:25;14.90;;;10.63;;
15258;SDS011;34462;51.368;12.364;2023-03-01T07:52:54;16.37;;;11.93;;
15258;SDS011;34462;51.368;12.364;2023-03-01T07:55:23;14.83;;;10.70;;
15258;SDS011;34462;51.368;12.364;2023-03-01T07:57:51;14.80;;;10.77;;
15258;SDS011;34462;51.368;12.364;2023-03-01T08:00:19;16.53;;;11.40;;
15258;SDS011;34462;51.368;12.364;2023-03-01T08:02:47;16.83;;;11.50;;
15258;SDS011;34462;51.368;12.364;2023-03-01T08:05:16;16.77;;;11.40;;
15258;SDS011;34462;51.368;12.364;2023-03-01T08:07:44;15.90;;;11.20;;
15258;SDS011;34462;51.368;12.364;2023-03-01T08:10:14;16.90;;;11.60;;
15258;SDS011;34462;51.368;12.364;2023-03-01T08:12:42;15.80;;;11.37;;
15258;SDS011;34462;51.368;12.364;2023-03-01T08:15:10;15.43;;;10.40;;
15258;SDS011;34462;51.368;12.364;2023-03-01T08:17:38;16.37;;;11.73;;
15258;SDS011;34462;51.368;12.364;2023-03-01T08:20:07;21.50;;;11.33;;
15258;SDS011;34462;51.368;12.364;2023-03-01T08:22:38;14.80;;;10.77;;
15258;SDS011;34462;51.368;12.364;2023-03-01T08:25:07;16.80;;;11.60;;
15258;SDS011;34462;51.368;12.364;2023-03-01T08:27:37;14.93;;;11.13;;
15258;SDS011;34462;51.368;12.364;2023-03-01T08:30:06;17.43;;;11.20;;
15258;SDS011;34462;51.368;12.364;2023-03-01T08:32:36;16.80;;;11.23;;
15258;SDS011;34462;51.368;12.364;2023-03-01T08:35:05;17.13;;;11.93;;
15258;SDS011;34462;51.368;12.364;2023-03-01T08:37:35;17.07;;;11.27;;
15258;SDS011;34462;51.368;12.364;2023-03-01T08:40:03;17.10;;;10.97;;
15258;SDS011;34462;51.368;12.364;2023-03-01T08:42:37;15.77;;;11.47;;
15258;SDS011;34462;51.368;12.364;2023-03-01T08:45:05;14.80;;;11.20;;
15258;SDS011;34462;51.368;12.364;2023-03-01T08:47:36;17.03;;;11.70;;
15258;SDS011;34462;51.368;12.364;2023-03-01T08:50:04;17.00;;;12.17;;
15258;SDS011;34462;51.368;12.364;2023-03-01T08:52:33;15.67;;;11.43;;
15258;SDS011;34462;51.368;12.364;2023-03-01T08:55:01;19.43;;;13.10;;
15258;SDS011;34462;51.368;12.364;2023-03-01T08:57:30;17.43;;;11.87;;
15258;SDS011;34462;51.368;12.364;2023-03-01T09:00:00;21.80;;;13.63;;
15258;SDS011;34462;51.368;12.364;2023-03-01T09:02:29;17.23;;;12.03;;
15258;SDS011;34462;51.368;12.364;2023-03-01T09:04:57;18.47;;;12.33;;
15258;SDS011;34462;51.368;12.364;2023-03-01T09:07:26;18.03;;;12.47;;
15258;SDS011;34462;51.368;12.364;2023-03-01T09:09:55;17.83;;;12.87;;
15258;SDS011;34462;51.368;12.364;2023-03-01T09:12:23;18.03;;;12.50;;
15258;SDS011;34462;51.368;12.364;2023-03-01T09:14:52;20.33;;;11.93;;
15258;SDS011;34462;51.368;12.364;2023-03-01T09:17:21;18.00;;;12.80;;
15258;SDS011;34462;51.368;12.364;2023-03-01T09:19:49;17.43;;;12.97;;
15258;SDS011;34462;51.368;12.364;2023-03-01T09:22:17;18.53;;;12.40;;
15258;SDS011;34462;51.368;12.364;2023-03-01T09:24:46;19.40;;;12.80;;
15258;SDS011;34462;51.368;12.364;2023-03-01T09:27:14;20.67;;;13.57;;
15258;SDS011;34462;51.368;12.364;2023-03-01T09:29:45;17.97;;;12.87;;
15258;SDS011;34462;51.368;12.364;2023-03-01T09:32:13;18.70;;;12.73;;
15258;SDS011;34462;51.368;12.364;2023-03-01T09:34:42;19.47;;;13.07;;
15258;SDS011;34462;51.368;12.364;2023-03-01T09:37:31;17.43;;;12.67;;
15258;SDS011;34462;51.368;12.364;2023-03-01T09:40:00;18.47;;;12.00;;
15258;SDS011;34462;51.368;12.364;2023-03-01T09:42:31;18.60;;;12.87;;
15258;SDS011;34462;51.368;12.364;2023-03-01T09:45:03;17.87;;;12.53;;
15258;SDS011;34462;51.368;12.364;2023-03-01T09:47:38;18.23;;;13.27;;
15258;SDS011;34462;51.368;12.364;2023-03-01T09:50:11;19.40;;;12.93;;
15258;SDS011;34462;51.368;12.364;2023-03-01T09:52:44;19.23;;;12.03;;
15258;SDS011;34462;51.368;12.364;2023-03-01T09:55:23;18.07;;;12.60;;
15258;SDS011;34462;51.368;12.364;2023-03-01T09:58:00;18.40;;;12.57;;
15258;SDS011;34462;51.368;12.364;2023-03-01T10:00:43;21.10;;;13.63;;
15258;SDS011;34462;51.368;12.364;2023-03-01T10:03:16;20.07;;;13.47;;
15258;SDS011;34462;51.368;12.364;2023-03-01T10:05:55;20.27;;;13.40;;
15258;SDS011;34462;51.368;12.364;2023-03-01T10:08:33;18.47;;;13.10;;
15258;SDS011;34462;51.368;12.364;2023-03-01T10:11:19;17.63;;;13.13;;
15258;SDS011;34462;51.368;12.364;2023-03-01T10:13:52;19.80;;;12.90;;
15258;SDS011;34462;51.368;12.364;2023-03-01T10:16:31;18.43;;;12.97;;
15258;SDS011;34462;51.368;12.364;2023-03-01T10:19:11;18.93;;;12.57;;
15258;SDS011;34462;51.368;12.364;2023-03-01T10:21:47;15.10;;;11.20;;
15258;SDS011;34462;51.368;12.364;2023-03-01T10:24:18;17.77;;;12.67;;
15258;SDS011;34462;51.368;12.364;2023-03-01T10:26:48;16.77;;;11.83;;
15258;SDS011;34462;51.368;12.364;2023-03-01T10:29:24;16.30;;;11.67;;
15258;SDS011;34462;51.368;12.364;2023-03-01T10:32:02;16.30;;;11.27;;
15258;SDS011;34462;51.368;12.364;2023-03-01T10:34:34;15.50;;;12.20;;
15258;SDS011;34462;51.368;12.364;2023-03-01T10:37:10;17.87;;;12.00;;
15258;SDS011;34462;51.368;12.364;2023-03-01T10:42:26;17.30;;;12.07;;
15258;SDS011;34462;51.368;12.364;2023-03-01T10:44:57;15.80;;;11.40;;
15258;SDS011;34462;51.368;12.364;2023-03-01T10:47:43;17.20;;;12.23;;
15258;SDS011;34462;51.368;12.364;2023-03-01T10:50:18;17.90;;;12.37;;
15258;SDS011;34462;51.368;12.364;2023-03-01T10:52:57;19.60;;;12.57;;
15258;SDS011;34462;51.368;12.364;2023-03-01T10:55:30;18.63;;;12.67;;
15258;SDS011;34462;51.368;12.364;2023-03-01T10:58:07;20.47;;;13.63;;
15258;SDS011;34462;51.368;12.364;2023-03-01T11:00:46;21.80;;;14.27;;
15258;SDS011;34462;51.368;12.364;2023-03-01T11:03:18;19.60;;;14.37;;
15258;SDS011;34462;51.368;12.364;2023-03-01T11:05:58;20.37;;;15.07;;
15258;SDS011;34462;51.368;12.364;2023-03-01T11:08:35;17.67;;;13.50;;
15258;SDS011;34462;51.368;12.364;2023-03-01T11:11:14;18.57;;;13.53;;
15258;SDS011;34462;51.368;12.364;2023-03-01T11:13:54;19.13;;;13.10;;
15258;SDS011;34462;51.368;12.364;2023-03-01T11:16:26;17.23;;;13.30;;
15258;SDS011;34462;51.368;12.364;2023-03-01T11:19:01;18.50;;;13.10;;
15258;SDS011;34462;51.368;12.364;2023-03-01T11:21:45;19.00;;;13.03;;
15258;SDS011;34462;51.368;12.364;2023-03-01T11:24:31;16.43;;;11.80;;
15258;SDS011;34462;51.368;12.364;2023-03-01T11:27:14;18.50;;;12.50;;
15258;SDS011;34462;51.368;12.364;2023-03-01T11:29:51;19.03;;;13.90;;
15258;SDS011;34462;51.368;12.364;2023-03-01T11:32:23;18.60;;;13.33;;
15258;SDS011;34462;51.368;12.364;2023-03-01T11:35:01;17.60;;;12.30;;
15258;SDS011;34462;51.368;12.364;2023-03-01T11:37:38;16.77;;;12.13;;
15258;SDS011;34462;51.368;12.364;2023-03-01T11:40:21;19.60;;;13.13;;
15258;SDS011;34462;51.368;12.364;2023-03-01T11:42:57;18.60;;;12.37;;
15258;SDS011;34462;51.368;12.364;2023-03-01T11:45:40;19.53;;;12.93;;
15258;SDS011;34462;51.368;12.364;2023-03-01T11:48:35;17.57;;;12.70;;
15258;SDS011;34462;51.368;12.364;2023-03-01T11:51:20;16.07;;;11.37;;
15258;SDS011;34462;51.368;12.364;2023-03-01T11:54:02;16.90;;;12.10;;
15258;SDS011;34462;51.368;12.364;2023-03-01T11:56:43;17.37;;;12.37;;
15258;SDS011;34462;51.368;12.364;2023-03-01T11:59:28;18.13;;;12.23;;
15258;SDS011;34462;51.368;12.364;2023-03-01T12:02:33;20.13;;;12.63;;
15258;SDS011;34462;51.368;12.364;2023-03-01T12:08:53;16.57;;;12.10;;
15258;SDS011;34462;51.368;12.364;2023-03-01T12:11:40;14.57;;;11.17;;
15258;SDS011;34462;51.368;12.364;2023-03-01T12:14:41;15.93;;;11.17;;
15258;SDS011;34462;51.368;12.364;2023-03-01T12:17:52;15.73;;;11.17;;
15258;SDS011;34462;51.368;12.364;2023-03-01T12:20:51;13.70;;;10.03;;
15258;SDS011;34462;51.368;12.364;2023-03-01T12:23:46;13.83;;;10.97;;
15258;SDS011;34462;51.368;12.364;2023-03-01T12:27:00;12.70;;;9.70;;
15258;SDS011;34462;51.368;12.364;2023-03-01T12:29:49;13.77;;;9.50;;
15258;SDS011;34462;51.368;12.364;2023-03-01T12:32:31;12.00;;;9.33;;
15258;SDS011;34462;51.368;12.364;2023-03-01T12:35:25;12.33;;;9.27;;
15258;SDS011;34462;51.368;12.364;2023-03-01T12:38:15;14.37;;;10.00;;
15258;SDS011;34462;51.368;12.364;2023-03-01T12:44:14;13.90;;;10.63;;
15258;SDS011;34462;51.368;12.364;2023-03-01T12:47:19;16.10;;;10.53;;
15258;SDS011;34462;51.368;12.364;2023-03-01T12:50:11;14.50;;;11.60;;
15258;SDS011;34462;51.368;12.364;2023-03-01T12:52:47;16.73;;;11.30;;
15258;SDS011;34462;51.368;12.364;2023-03-01T12:55:24;15.70;;;12.23;;
15258;SDS011;34462;51.368;12.364;2023-03-01T12:58:04;14.73;;;11.20;;
15258;SDS011;34462;51.368;12.364;2023-03-01T13:00:59;15.83;;;11.40;;
15258;SDS011;34462;51.368;12.364;2023-03-01T13:03:50;14.70;;;11.17;;
15258;SDS011;34462;51.368;12.364;2023-03-01T13:06:44;15.53;;;10.53;;
15258;SDS011;34462;51.368;12.364;2023-03-01T13:09:28;16.20;;;11.23;;
15258;SDS011;34462;51.368;12.364;2023-03-01T13:15:25;14.70;;;11.27;;
15258;SDS011;34462;51.368;12.364;2023-03-01T13:17:59;15.57;;;10.37;;
15258;SDS011;34462;51.368;12.364;2023-03-01T13:20:31;17.90;;;11.20;;
15258;SDS011;34462;51.368;12.364;2023-03-01T13:23:12;14.60;;;11.00;;
15258;SDS011;34462;51.368;12.364;2023-03-01T13:26:03;13.83;;;10.43;;
15258;SDS011;34462;51.368;12.364;2023-03-01T13:28:49;15.80;;;10.27;;
15258;SDS011;34462;51.368;12.364;2023-03-01T13:34:45;15.10;;;10.13;;
15258;SDS011;34462;51.368;12.364;2023-03-01T13:37:23;12.60;;;10.07;;
15258;SDS011;34462;51.368;12.364;2023-03-01T13:39:58;13.90;;;10.17;;
15258;SDS011;34462;51.368;12.364;2023-03-01T13:42:55;12.27;;;9.33;;
15258;SDS011;34462;51.368;12.364;2023-03-01T13:45:35;12.97;;;9.53;;
15258;SDS011;34462;51.368;12.364;2023-03-01T13:48:15;13.73;;;9.23;;
15258;SDS011;34462;51.368;12.364;2023-03-01T13:50:51;11.93;;;8.67;;
15258;SDS011;34462;51.368;12.364;2023-03-01T13:53:27;12.43;;;8.63;;
15258;SDS011;34462;51.368;12.364;2023-03-01T13:56:01;11.07;;;8.20;;
15258;SDS011;34462;51.368;12.364;2023-03-01T14:01:26;10.90;;;7.57;;
15258;SDS011;34462;51.368;12.364;2023-03-01T14:03:57;10.00;;;7.10;;
15258;SDS011;34462;51.368;12.364;2023-03-01T14:06:27;10.70;;;7.17;;
15258;SDS011;34462;51.368;12.364;2023-03-01T14:09:02;11.43;;;7.60;;
15258;SDS011;34462;51.368;12.364;2023-03-01T14:11:54;9.30;;;6.77;;
15258;SDS011;34462;51.368;12.364;2023-03-01T14:14:57;8.53;;;6.50;;
15258;SDS011;34462;51.368;12.364;2023-03-01T14:17:41;9.60;;;7.00;;
15258;SDS011;34462;51.368;12.364;2023-03-01T14:20:23;11.37;;;6.70;;
15258;SDS011;34462;51.368;12.364;2023-03-01T14:22:56;9.93;;;7.47;;
15258;SDS011;34462;51.368;12.364;2023-03-01T14:25:29;9.30;;;6.73;;
15258;SDS011;34462;51.368;12.364;2023-03-01T14:28:02;9.87;;;6.97;;
15258;SDS011;34462;51.368;12.364;2023-03-01T14:30:43;9.00;;;6.57;;
15258;SDS011;34462;51.368;12.364;2023-03-01T14:33:18;8.23;;;6.63;;
15258;SDS011;34462;51.368;12.364;2023-03-01T14:35:55;9.50;;;7.30;;
15258;SDS011;34462;51.368;12.364;2023-03-01T14:38:31;10.03;;;6.97;;
15258;SDS011;34462;51.368;12.364;2023-03-01T14:41:02;10.27;;;6.80;;
15258;SDS011;34462;51.368;12.364;2023-03-01T14:43:34;9.10;;;6.37;;
15258;SDS011;34462;51.368;12.364;2023-03-01T14:46:06;7.87;;;6.53;;
15258;SDS011;34462;51.368;12.364;2023-03-01T14:48:48;9.90;;;7.30;;
15258;SDS011;34462;51.368;12.364;2023-03-01T14:51:18;11.13;;;7.33;;
15258;SDS011;34462;51.368;12.364;2023-03-01T14:53:46;9.40;;;6.97;;
15258;SDS011;34462;51.368;12.364;2023-03-01T14:56:16;10.50;;;6.60;;
15258;SDS011;34462;51.368;12.364;2023-03-01T14:58:45;14.03;;;7.27;;
15258;SDS011;34462;51.368;12.364;2023-03-01T15:01:20;10.97;;;6.83;;
15258;SDS011;34462;51.368;12.364;2023-03-01T15:03:49;9.07;;;6.67;;
15258;SDS011;34462;51.368;12.364;2023-03-01T15:06:19;8.63;;;6.90;;
15258;SDS011;34462;51.368;12.364;2023-03-01T15:08:50;9.57;;;6.90;;